createdAt,value
2017-07-25T00:00:54.993Z,93910.08
2017-07-25T00:03:22.541Z,93904.06
2017-07-25T00:05:50.078Z,93895.18
2017-07-25T00:08:17.634Z,93900.81
2017-07-25T00:10:45.148Z,93904.00
2017-07-25T00:13:12.661Z,93892.88
2017-07-25T00:15:40.210Z,93906.80
2017-07-25T00:18:07.719Z,93890.29
2017-07-25T00:20:35.265Z,93897.30
2017-07-25T00:23:02.790Z,93903.88
2017-07-25T00:25:30.393Z,93896.84
2017-07-25T00:27:57.909Z,93888.63
2017-07-25T00:30:25.433Z,93893.29
2017-07-25T00:32:52.989Z,93891.21
2017-07-25T00:35:20.496Z,93890.56
2017-07-25T00:37:48.060Z,93882.63
2017-07-25T00:40:15.644Z,93872.92
2017-07-25T00:42:43.153Z,93874.05
2017-07-25T00:45:10.698Z,93881.36
2017-07-25T00:47:38.286Z,93885.02
2017-07-25T00:50:05.793Z,93873.59
2017-07-25T00:52:33.308Z,93865.60
2017-07-25T00:55:00.845Z,93861.53
2017-07-25T00:57:28.393Z,93856.58
2017-07-25T00:59:55.990Z,93855.83
2017-07-25T01:02:23.507Z,93854.56
2017-07-25T01:04:51.022Z,93859.44
2017-07-25T01:07:18.588Z,93849.49
2017-07-25T01:09:46.109Z,93845.86
2017-07-25T01:12:13.612Z,93845.13
2017-07-25T01:14:41.162Z,93846.39
2017-07-25T01:17:08.665Z,93845.00
2017-07-25T01:19:36.230Z,93849.39
2017-07-25T01:22:03.745Z,93842.20
2017-07-25T01:24:31.290Z,93846.62
2017-07-25T01:26:58.843Z,93843.34
2017-07-25T01:29:26.357Z,93855.57
2017-07-25T01:31:53.874Z,93849.28
2017-07-25T01:34:21.469Z,93839.59
2017-07-25T01:36:48.993Z,93836.48
2017-07-25T01:39:16.542Z,93832.92
2017-07-25T01:41:44.061Z,93833.48
2017-07-25T01:46:45.257Z,93827.20
2017-07-25T01:49:12.811Z,93823.54
2017-07-25T01:51:40.326Z,93820.19
2017-07-25T01:54:07.921Z,93822.67
2017-07-25T01:56:35.440Z,93816.83
2017-07-25T01:59:02.962Z,93813.99
2017-07-25T02:01:30.509Z,93816.64
2017-07-25T02:03:58.021Z,93817.59
2017-07-25T02:06:25.571Z,93824.38
2017-07-25T02:08:53.085Z,93824.52
2017-07-25T02:11:20.637Z,93815.81
2017-07-25T02:13:48.204Z,93818.68
2017-07-25T02:16:15.753Z,93810.19
2017-07-25T02:18:43.281Z,93810.94
2017-07-25T02:21:10.854Z,93815.50
2017-07-25T02:23:38.367Z,93809.60
2017-07-25T02:26:05.878Z,93810.02
2017-07-25T02:28:33.420Z,93810.94
2017-07-25T02:31:00.927Z,93803.61
2017-07-25T02:33:28.520Z,93797.00
2017-07-25T02:35:56.062Z,93805.00
2017-07-25T02:38:23.568Z,93789.49
2017-07-25T02:40:51.151Z,93787.66
2017-07-25T02:43:18.704Z,93787.97
2017-07-25T02:45:46.260Z,93785.20
2017-07-25T02:48:13.804Z,93779.88
2017-07-25T02:50:41.356Z,93779.13
2017-07-25T02:53:08.863Z,93786.69
2017-07-25T02:55:36.418Z,93781.30
2017-07-25T02:58:03.925Z,93775.17
2017-07-25T03:00:31.446Z,93781.76
2017-07-25T03:02:59.002Z,93779.36
2017-07-25T03:05:26.549Z,93782.48
2017-07-25T03:07:54.118Z,93777.88
2017-07-25T03:10:21.672Z,93775.97
2017-07-25T03:12:49.225Z,93779.94
2017-07-25T03:15:16.784Z,93770.91
2017-07-25T03:17:44.346Z,93774.20
2017-07-25T03:20:11.913Z,93772.13
2017-07-25T03:22:39.439Z,93770.58
2017-07-25T03:25:06.985Z,93766.86
2017-07-25T03:27:34.563Z,93765.55
2017-07-25T03:30:02.098Z,93765.33
2017-07-25T03:32:29.608Z,93764.88
2017-07-25T03:34:57.197Z,93773.87
2017-07-25T03:37:24.748Z,93775.00
2017-07-25T03:39:52.313Z,93774.47
2017-07-25T03:42:19.867Z,93772.41
2017-07-25T03:44:47.381Z,93778.11
2017-07-25T03:47:14.937Z,93773.32
2017-07-25T03:49:42.476Z,93769.60
2017-07-25T03:52:10.057Z,93770.28
2017-07-25T03:54:37.558Z,93775.63
2017-07-25T03:57:05.117Z,93772.45
2017-07-25T03:59:32.631Z,93774.07
2017-07-25T04:02:00.172Z,93778.67
2017-07-25T04:04:27.713Z,93773.27
2017-07-25T04:06:55.314Z,93780.19
2017-07-25T04:09:22.853Z,93773.91
2017-07-25T04:11:50.385Z,93779.38
2017-07-25T04:14:17.969Z,93780.27
2017-07-25T04:16:45.476Z,93774.58
2017-07-25T04:19:12.992Z,93774.14
2017-07-25T04:21:40.553Z,93772.80
2017-07-25T04:24:08.085Z,93778.17
2017-07-25T04:26:35.600Z,93785.20
2017-07-25T04:29:03.177Z,93778.11
2017-07-25T04:31:30.701Z,93781.94
2017-07-25T04:33:58.222Z,93786.02
2017-07-25T04:36:25.821Z,93781.06
2017-07-25T04:38:53.332Z,93781.58
2017-07-25T04:41:20.864Z,93792.61
2017-07-25T04:43:48.419Z,93786.19
2017-07-25T04:46:15.965Z,93793.27
2017-07-25T04:48:43.524Z,93784.25
2017-07-25T04:51:11.094Z,93791.42
2017-07-25T04:53:38.606Z,93787.28
2017-07-25T04:56:06.126Z,93800.67
2017-07-25T04:58:33.717Z,93805.48
2017-07-25T05:01:01.277Z,93809.05
2017-07-25T05:03:28.833Z,93814.59
2017-07-25T05:05:56.459Z,93815.64
2017-07-25T05:08:24.045Z,93801.64
2017-07-25T05:10:51.604Z,93814.45
2017-07-25T05:13:19.207Z,93811.27
2017-07-25T05:15:46.827Z,93806.45
2017-07-25T05:18:14.342Z,93801.34
2017-07-25T05:20:41.852Z,93810.15
2017-07-25T05:23:09.441Z,93814.45
2017-07-25T05:25:36.957Z,93806.84
2017-07-25T05:28:04.488Z,93816.38
2017-07-25T05:30:32.062Z,93818.02
2017-07-25T05:32:59.614Z,93809.41
2017-07-25T05:35:27.165Z,93814.29
2017-07-25T05:37:54.801Z,93823.62
2017-07-25T05:40:22.411Z,93808.09
2017-07-25T05:42:50.761Z,93806.56
2017-07-25T05:45:18.395Z,93804.92
2017-07-25T05:47:46.660Z,93807.72
2017-07-25T05:50:16.042Z,93807.20
2017-07-25T05:52:43.741Z,93815.64
2017-07-25T05:55:11.305Z,93806.31
2017-07-25T05:57:38.989Z,93812.09
2017-07-25T06:00:08.667Z,93812.16
2017-07-25T06:02:36.804Z,93804.52
2017-07-25T06:05:04.418Z,93788.83
2017-07-25T06:07:31.994Z,93801.61
2017-07-25T06:10:00.409Z,93797.70
2017-07-25T06:12:28.086Z,93785.47
2017-07-25T06:14:55.872Z,93773.27
2017-07-25T06:17:24.177Z,93795.00
2017-07-25T06:19:51.893Z,93781.14
2017-07-25T06:22:19.839Z,93779.80
2017-07-25T06:24:47.717Z,93776.68
2017-07-25T06:27:15.498Z,93787.58
2017-07-25T06:30:07.872Z,93790.50
2017-07-25T06:32:35.507Z,93792.20
2017-07-25T06:35:04.121Z,93821.94
2017-07-25T06:37:33.015Z,93824.10
2017-07-25T06:40:05.001Z,93815.77
2017-07-25T06:42:37.233Z,93801.73
2017-07-25T06:45:05.430Z,93819.25
2017-07-25T06:47:36.677Z,93820.20
2017-07-25T06:50:07.566Z,93799.38
2017-07-25T06:52:35.392Z,93796.40
2017-07-25T06:55:06.395Z,93807.94
2017-07-25T06:57:34.125Z,93802.20
2017-07-25T07:05:40.673Z,93791.50
2017-07-25T07:08:09.248Z,93798.61
2017-07-25T07:10:45.530Z,93784.70
2017-07-25T07:13:14.439Z,93790.55
2017-07-25T07:15:42.597Z,93801.47
2017-07-25T07:20:10.155Z,93795.36
2017-07-25T07:22:38.253Z,93791.57
2017-07-25T07:25:06.071Z,93794.78
2017-07-25T07:27:33.866Z,93793.20
2017-07-25T07:30:05.522Z,93791.73
2017-07-25T07:32:33.418Z,93786.61
2017-07-25T07:35:01.092Z,93781.72
2017-07-25T07:37:38.695Z,93787.17
2017-07-25T07:40:06.726Z,93792.19
2017-07-25T07:42:37.427Z,93784.72
2017-07-25T07:45:06.081Z,93789.52
2017-07-25T07:47:35.880Z,93785.84
2017-07-25T08:07:32.524Z,93776.04
2017-07-25T08:48:20.285Z,93726.93
2017-07-25T08:50:52.352Z,93739.08
2017-07-25T08:53:35.006Z,93746.74
2017-07-25T08:56:05.415Z,93741.24
2017-07-25T08:58:59.734Z,93746.31
2017-07-25T09:04:36.682Z,93778.84
2017-07-25T09:07:11.050Z,93840.50
2017-07-25T09:09:55.173Z,93846.27
2017-07-25T09:12:31.739Z,93886.50
2017-07-25T09:15:04.304Z,93879.23
2017-07-25T09:17:32.498Z,93899.66
2017-07-25T09:20:17.105Z,93892.34
2017-07-25T09:22:48.617Z,93890.39
2017-07-25T09:25:27.320Z,93892.78
2017-07-25T09:34:39.933Z,93868.58
2017-07-25T09:37:19.544Z,93877.41
2017-07-25T09:39:54.575Z,93861.33
2017-07-25T09:42:31.799Z,93870.59
2017-07-25T09:45:03.366Z,93869.44
2017-07-25T09:47:45.917Z,93880.11
2017-07-25T09:50:22.450Z,93869.59
2017-07-25T09:53:05.354Z,93868.11
2017-07-25T09:56:12.788Z,93860.83
2017-07-25T10:02:15.249Z,93846.84
2017-07-25T10:04:57.520Z,93845.64
2017-07-25T10:07:51.454Z,93846.22
2017-07-25T10:10:40.787Z,93851.52
2017-07-25T10:13:18.585Z,93849.67
2017-07-25T10:15:50.889Z,93847.45
2017-07-25T10:18:42.913Z,93833.63
2017-07-25T10:27:19.142Z,93812.63
2017-07-25T10:29:52.992Z,93801.73
2017-07-25T10:32:24.595Z,93797.52
2017-07-25T10:38:01.799Z,93785.09
2017-07-25T10:40:35.651Z,93775.85
2017-07-25T10:43:13.167Z,93777.67
2017-07-25T10:54:33.871Z,93745.98
2017-07-25T11:00:14.524Z,93741.11
2017-07-25T11:09:17.322Z,93717.36
2017-07-25T11:11:48.191Z,93712.02
2017-07-25T11:14:39.094Z,93714.27
2017-07-25T11:17:19.314Z,93714.36
2017-07-25T11:19:52.886Z,93709.55
2017-07-25T11:22:24.483Z,93712.08
2017-07-25T11:24:52.795Z,93695.32
2017-07-25T11:27:22.345Z,93701.80
2017-07-25T11:33:16.588Z,93703.59
2017-07-25T11:35:51.785Z,93669.94
2017-07-25T11:38:29.274Z,93688.56
2017-07-25T11:40:57.702Z,93690.84
2017-07-25T11:43:25.716Z,93687.89
2017-07-25T11:45:54.925Z,93677.05
2017-07-25T11:48:25.191Z,93683.37
2017-07-25T11:50:56.380Z,93672.21
2017-07-25T11:53:31.288Z,93674.84
2017-07-25T11:56:07.794Z,93670.16
2017-07-25T11:58:35.942Z,93670.47
2017-07-25T12:01:05.286Z,93681.27
2017-07-25T12:03:42.602Z,93694.27
2017-07-25T12:06:15.845Z,93688.91
2017-07-25T12:09:02.268Z,93682.41
2017-07-25T12:11:36.270Z,93678.90
2017-07-25T12:14:04.461Z,93676.84
2017-07-25T12:16:49.720Z,93685.41
2017-07-25T12:22:09.415Z,93683.28
2017-07-25T12:24:37.079Z,93700.41
2017-07-25T12:27:05.059Z,93687.62
2017-07-25T12:29:43.307Z,93702.32
2017-07-25T12:32:13.688Z,93700.98
2017-07-25T12:35:06.673Z,93696.02
2017-07-25T12:37:36.889Z,93696.94
2017-07-25T12:40:06.383Z,93709.88
2017-07-25T12:42:39.146Z,93714.88
2017-07-25T12:45:11.099Z,93713.66
2017-07-25T12:47:44.435Z,93723.03
2017-07-25T12:50:21.284Z,93707.16
2017-07-25T12:52:56.589Z,93688.25
2017-07-25T12:55:26.140Z,93696.06
2017-07-25T12:57:56.922Z,93700.74
2017-07-25T13:00:27.274Z,93703.58
2017-07-25T13:02:56.545Z,93683.78
2017-07-25T13:05:27.874Z,93681.48
2017-07-25T13:07:56.804Z,93698.82
2017-07-25T13:10:32.142Z,93702.03
2017-07-25T13:13:03.057Z,93700.68
2017-07-25T13:15:32.917Z,93693.42
2017-07-25T13:18:05.205Z,93692.61
2017-07-25T13:20:47.691Z,93677.86
2017-07-25T13:23:17.427Z,93680.75
2017-07-25T13:25:46.090Z,93683.95
2017-07-25T13:28:14.887Z,93685.61
2017-07-25T13:30:43.492Z,93700.14
2017-07-25T13:33:11.658Z,93691.41
2017-07-25T13:35:45.789Z,93683.81
2017-07-25T13:38:17.457Z,93688.53
2017-07-25T13:40:45.961Z,93686.70
2017-07-25T13:43:16.390Z,93691.92
2017-07-25T13:45:44.911Z,93691.58
2017-07-25T13:48:14.929Z,93670.41
2017-07-25T13:50:43.601Z,93675.25
2017-07-25T13:53:16.371Z,93680.88
2017-07-25T13:55:52.217Z,93668.13
2017-07-25T13:58:21.139Z,93686.27
2017-07-25T14:00:51.128Z,93687.78
2017-07-25T14:06:13.203Z,93671.67
2017-07-25T14:08:44.658Z,93669.50
2017-07-25T14:11:13.499Z,93661.06
2017-07-25T14:13:41.429Z,93668.70
2017-07-25T14:16:10.495Z,93656.84
2017-07-25T14:18:38.336Z,93659.77
2017-07-25T14:21:07.444Z,93656.88
2017-07-25T14:23:37.038Z,93654.52
2017-07-25T14:26:05.843Z,93635.10
2017-07-25T14:28:34.134Z,93642.03
2017-07-25T14:31:02.645Z,93638.77
2017-07-25T14:33:30.826Z,93632.69
2017-07-25T14:36:00.472Z,93612.56
2017-07-25T14:38:34.266Z,93618.58
2017-07-25T14:41:02.058Z,93626.02
2017-07-25T14:43:32.344Z,93622.11
2017-07-25T14:46:00.966Z,93639.78
2017-07-25T14:48:28.844Z,93661.02
2017-07-25T14:50:57.364Z,93651.83
2017-07-25T14:53:25.564Z,93663.84
2017-07-25T14:55:53.323Z,93663.44
2017-07-25T14:58:23.333Z,93654.75
2017-07-25T15:00:58.250Z,93663.09
2017-07-25T15:03:38.321Z,93683.39
2017-07-25T15:06:07.072Z,93685.21
2017-07-25T15:08:34.799Z,93690.09
2017-07-25T15:11:02.670Z,93702.25
2017-07-25T15:13:31.456Z,93714.56
2017-07-25T15:15:59.118Z,93710.61
2017-07-25T15:18:26.722Z,93729.55
2017-07-25T15:20:54.284Z,93744.90
2017-07-25T15:23:21.954Z,93782.36
2017-07-25T15:28:23.838Z,93834.20
2017-07-25T15:30:51.442Z,93825.38
2017-07-25T15:33:19.078Z,93846.34
2017-07-25T15:35:46.782Z,93901.02
2017-07-25T15:38:14.352Z,93924.78
2017-07-25T15:40:42.377Z,93905.40
2017-07-25T15:43:10.017Z,93956.15
2017-07-25T15:45:37.525Z,93973.59
2017-07-25T15:48:05.145Z,93970.09
2017-07-25T15:50:32.915Z,93957.67
2017-07-25T15:53:00.459Z,93951.50
2017-07-25T15:55:28.027Z,93954.95
2017-07-25T15:57:55.616Z,93960.67
2017-07-25T16:00:23.816Z,93962.78
2017-07-25T16:02:51.421Z,93957.02
2017-07-25T16:05:19.023Z,93954.20
2017-07-25T16:07:46.638Z,93940.34
2017-07-25T16:10:21.490Z,93944.81
2017-07-25T16:12:49.313Z,93953.02
2017-07-25T16:15:16.849Z,93974.37
2017-07-25T16:17:44.441Z,93979.51
2017-07-25T16:30:20.269Z,93964.53
2017-07-25T16:32:48.167Z,93946.91
2017-07-25T16:35:15.710Z,93944.68
2017-07-25T16:37:43.292Z,93950.53
2017-07-25T16:40:10.826Z,93955.36
2017-07-25T16:42:38.390Z,93948.87
2017-07-25T16:45:05.945Z,93943.09
2017-07-25T16:47:33.480Z,93950.22
2017-07-25T16:50:01.146Z,93960.89
2017-07-25T16:52:28.675Z,93962.09
2017-07-25T16:54:56.216Z,93967.55
2017-07-25T16:57:23.778Z,93961.63
2017-07-25T16:59:58.878Z,93959.72
2017-07-25T17:02:26.449Z,93971.00
2017-07-25T17:04:53.951Z,93980.03
2017-07-25T17:07:21.498Z,93985.20
2017-07-25T17:09:49.100Z,93984.83
2017-07-25T17:12:16.620Z,94007.23
2017-07-25T17:14:44.117Z,94006.95
2017-07-25T17:17:11.677Z,93998.78
2017-07-25T17:19:39.176Z,93999.84
2017-07-25T17:22:06.727Z,94000.86
2017-07-25T17:24:34.245Z,94004.11
2017-07-25T17:27:01.801Z,93998.84
2017-07-25T17:29:29.377Z,94008.19
2017-07-25T17:31:56.969Z,94012.05
2017-07-25T17:34:24.487Z,94011.30
2017-07-25T17:36:52.138Z,93991.58
2017-07-25T17:39:19.700Z,93998.52
2017-07-25T17:41:47.356Z,93993.94
2017-07-25T17:44:14.917Z,93998.97
2017-07-25T17:46:42.465Z,93995.70
2017-07-25T17:49:10.012Z,94005.13
2017-07-25T17:51:37.511Z,93995.57
2017-07-25T17:54:05.073Z,93990.16
2017-07-25T17:56:32.596Z,93992.89
2017-07-25T17:59:00.157Z,93984.72
2017-07-25T18:01:27.661Z,93999.11
2017-07-25T18:03:55.199Z,93997.92
2017-07-25T18:06:22.748Z,93999.39
2017-07-25T18:08:50.305Z,94002.58
2017-07-25T18:11:19.668Z,93991.55
2017-07-25T18:13:47.303Z,93996.65
2017-07-25T18:16:14.878Z,93994.28
2017-07-25T18:18:42.393Z,94000.34
2017-07-25T18:21:09.901Z,93985.09
2017-07-25T18:23:37.465Z,93984.56
2017-07-25T18:26:04.969Z,93992.95
2017-07-25T18:28:32.498Z,94015.86
2017-07-25T18:31:00.057Z,94014.45
2017-07-25T18:33:27.580Z,94014.38
2017-07-25T18:35:55.090Z,93993.27
2017-07-25T18:38:22.648Z,94008.45
2017-07-25T18:40:50.177Z,93995.69
2017-07-25T18:43:17.730Z,94011.84
2017-07-25T18:45:45.295Z,94018.52
2017-07-25T18:48:12.823Z,94037.08
2017-07-25T18:50:40.361Z,94054.20
2017-07-25T18:53:07.882Z,94056.59
2017-07-25T18:55:35.423Z,94047.56
2017-07-25T18:58:02.917Z,94056.23
2017-07-25T19:00:30.465Z,94056.16
2017-07-25T19:02:57.968Z,94053.28
2017-07-25T19:05:25.553Z,94049.05
2017-07-25T19:07:53.073Z,94039.63
2017-07-25T19:10:20.589Z,94073.38
2017-07-25T19:12:48.176Z,94084.56
2017-07-25T19:15:15.709Z,94075.45
2017-07-25T19:17:43.247Z,94064.77
2017-07-25T19:20:18.631Z,94070.55
2017-07-25T19:22:46.173Z,94066.00
2017-07-25T19:25:13.689Z,94058.34
2017-07-25T19:27:41.253Z,94060.35
2017-07-25T19:40:17.539Z,94056.27
2017-07-25T19:42:45.040Z,94053.08
2017-07-25T19:45:12.577Z,94042.09
2017-07-25T19:47:40.130Z,94036.47
2017-07-25T20:00:16.275Z,94042.76
2017-07-25T20:02:43.829Z,94045.36
2017-07-25T20:05:11.333Z,94048.75
2017-07-25T20:07:38.897Z,94053.94
2017-07-25T20:10:06.406Z,94059.78
2017-07-25T20:12:33.929Z,94068.66
2017-07-25T20:15:01.485Z,94071.77
2017-07-25T20:17:28.991Z,94048.72
2017-07-25T20:19:56.509Z,94061.02
2017-07-25T20:22:24.064Z,94059.70
2017-07-25T20:24:51.575Z,94037.07
2017-07-25T20:27:19.134Z,94049.95
2017-07-25T20:29:46.738Z,94061.83
2017-07-25T20:32:14.300Z,94054.85
2017-07-25T20:34:41.805Z,94046.51
2017-07-25T20:37:09.320Z,94051.16
2017-07-25T20:39:36.854Z,94054.84
2017-07-25T20:42:04.384Z,94059.20
2017-07-25T20:44:31.962Z,94067.27
2017-07-25T20:46:59.466Z,94057.06
2017-07-25T20:49:27.005Z,94066.11
2017-07-25T20:51:54.553Z,94066.76
2017-07-25T20:54:22.078Z,94055.95
2017-07-25T20:56:49.739Z,94052.25
2017-07-25T20:59:17.381Z,94064.33
2017-07-25T21:01:44.900Z,94059.81
2017-07-25T21:04:12.405Z,94053.95
2017-07-25T21:06:39.962Z,94054.15
2017-07-25T21:09:07.481Z,94046.17
2017-07-25T21:11:34.983Z,94053.66
2017-07-25T21:14:02.567Z,94062.55
2017-07-25T21:16:30.068Z,94069.89
2017-07-25T21:18:57.612Z,94067.74
2017-07-25T21:21:25.132Z,94066.08
2017-07-25T21:23:52.641Z,94063.70
2017-07-25T21:26:20.241Z,94073.20
2017-07-25T21:28:47.813Z,94076.91
2017-07-25T21:31:15.351Z,94073.03
2017-07-25T21:33:42.953Z,94075.03
2017-07-25T21:36:10.458Z,94077.12
2017-07-25T21:41:28.288Z,94080.08
2017-07-25T21:43:55.826Z,94077.09
2017-07-25T21:46:23.400Z,94079.34
2017-07-25T21:48:50.912Z,94072.85
2017-07-25T21:51:18.417Z,94071.98
2017-07-25T21:53:46.002Z,94069.58
2017-07-25T21:56:13.496Z,94075.37
2017-07-25T21:58:48.026Z,94073.59
2017-07-25T22:01:15.554Z,94066.71
2017-07-25T22:03:43.091Z,94074.13
2017-07-25T22:20:27.859Z,94063.25
2017-07-25T22:22:55.433Z,94072.05
2017-07-25T22:25:22.933Z,94065.61
2017-07-25T22:27:50.445Z,94085.67
2017-07-25T22:30:25.221Z,94093.98
2017-07-25T22:32:52.713Z,94084.66
2017-07-25T22:35:20.238Z,94078.31
2017-07-25T22:37:47.854Z,94080.41
2017-07-25T22:50:24.865Z,94074.38
2017-07-25T22:52:52.444Z,94069.95
2017-07-25T22:55:19.941Z,94060.66
2017-07-25T22:57:47.457Z,94063.21
2017-07-25T23:00:15.009Z,94065.03
2017-07-25T23:02:42.510Z,94066.45
2017-07-25T23:05:10.009Z,94059.97
2017-07-25T23:07:37.585Z,94060.23
2017-07-25T23:10:05.085Z,94063.09
2017-07-25T23:12:32.585Z,94059.69
2017-07-25T23:15:00.144Z,94055.25
2017-07-25T23:17:27.661Z,94051.98
2017-07-25T23:19:55.241Z,94052.33
2017-07-25T23:22:22.759Z,94048.05
2017-07-25T23:24:50.299Z,94043.59
2017-07-25T23:27:17.886Z,94041.45
2017-07-25T23:29:45.415Z,94030.17
2017-07-25T23:32:12.965Z,94036.39
2017-07-25T23:34:40.494Z,94028.23
2017-07-25T23:37:08.020Z,94045.12
2017-07-25T23:39:35.569Z,94030.75
2017-07-25T23:42:03.078Z,94034.77
2017-07-25T23:44:30.573Z,94041.95
2017-07-25T23:46:58.113Z,94044.84
2017-07-25T23:49:25.619Z,94041.13
2017-07-25T23:51:53.168Z,94039.25
2017-07-25T23:54:20.672Z,94043.31
2017-07-25T23:56:48.192Z,94049.62
2017-07-25T23:59:23.119Z,94054.48
